首页
METAR-TAF:

METAR-TAF

机场 :

斯波坎国际机场

斯波坎, 华盛顿, 美国

纬度: 47-37-17N, 经度: 117-31-40W, 海拔: 723米

当前天气观测

该预报发布于44分钟前的12:53 UTC
风速14节,风向西南
温度 15°C
湿度 48%
气压 1016 hPa
能見度: 16.1公里
少量云层高于4500英尺
少量云层高于10000英尺

METAR: KGEG 251253Z 22014KT 10SM FEW045 FEW100 15/04 A3000 RMK AO2 SLP142 FU FEW045 T01500044

时间: 06:37 (13:37 UTC)

预报

该预报发布于2小时和4分钟前的11:33 UTC
预报有效从25日的 12点(UTC)到 26日的 12点(UTC)
风速15节,风向南转西南
能見度: 10公里
少量云层高于10000英尺
少量云层高于20000英尺
从 25日的 1900点(UTC)
风速15节,风向西转西南,有时为24节阵风
能見度: 10公里
少量云层高于6000英尺
少量云层高于25000英尺
从 26日的 0100点(UTC)
风速9节,风向西
能見度: 10公里
天空无云
从 26日的 0600点(UTC)
风速4节,风向多变
能見度: 10公里
天空无云

TAF: KGEG 251133Z 2512/2612 21015KT P6SM FEW100 FEW200 FM251900 24015G24KT P6SM FEW060 FEW250 FM260100 26009KT P6SM SKC FM260600 VRB04KT P6SM SKC

超过4000个机场的气象观测和天气预报(METAR&TAF报告)。

可查询的气象台以黄色和红色小点在地图上表示。

将鼠标移到小点上方,可查看气象台名称。

然后点击查看天气观测和预报。

如需切换地图:点击带黑十字的绿色按钮放大地图;点击带横线的绿色按钮缩小地图;或者点击绿色箭头查看邻近地区的地图。


METAR-TAF: